Bayfield, Wisconsin
Current Conditions -  °F | °C
As of 10:53 PM on Sunday 21 Dec 2014 (Local Time) from KASX Reporting Station
Overcast Overcast  
Wind Chill: 30°   Ceiling: 1900
Heat Index: 35°   Visibility: 10mi
Dew Point: 33°   Wind: 6mph
Humidity: 92%   Direction: 160°SSE
Pressure: 29.78"   Gusts: NA
Location:  46.81°N, 90.82°W
Report Text: KASX 220453Z AUTO 16005KT 10SM BKN019 OVC027 02/01 A2978 RMK AO2 SLP096 T00170006
Loading
Personal Weather Stations






























Interactive Weather Map New forecast layout! Learn more

10-Day Weather Forecast

Advertisements
Track Severe Weather on mobile